Aérodrome :
LOGIN :

S'inscrire | Disclaimer

   EN    FR    IT 

 










Légende :    VFR   VFR Marginal   IFR   IFR Intensif   IFR Très Intensif
Visi : 
Plafond : 
>= 8 km
>= 3000ft
5 à 8 km
1000 à 3000 ft
1500m à 5 km
500 à 1000 ft
800 à 1500m
200 à 500 ft
< 800m
< 200 ft
Symboles :   Orages  Brouillard  Fortes neiges  Fortes précipitations  Vent > 20 kt
SIGMETs :   Divers  Orages  Givrage  Turbulence  Onde Orograph.  Cendres Volcan.







- Altitude de l'aérodrome : 499 ft
- Code IATA : TLS
- Voir les cartes d'approche


LFBO - Toulouse / Blagnac

DERNIER METAR :
  • 161730Z AUTO 27011KT 9999 VCTS ///CB 23/18 Q1017 BECMG NSW SCT040

METARs EXPIRÉS :
  • 161700Z AUTO 27014KT 9999 SCT042/// BKN056/// BKN066/// ///TCU 23/17 Q1017 TEMPO VRB15G25KT SHRA BKN030TCU SCT040CB
  • 161630Z AUTO 27014KT 9999 FEW030/// BKN041/// BKN054/// ///TCU 23/17 Q1017 TEMPO VRB15G25KT SHRA BKN030TCU SCT040CB
  • 161600Z AUTO 30014KT 9999 FEW039/// SCT046/// OVC120/// ///CB 24/15 Q1017 TEMPO VRB15G25KT SHRA
  • 161530Z AUTO 28014KT 9999 FEW042 OVC120 23/18 Q1017 TEMPO VRB15G25KT SHRA BKN030TCU SCT040CB
  • 161500Z AUTO 28016KT 9999 SCT034 BKN050 BKN084 23/17 Q1016 TEMPO VRB15G25KT SHRA BKN030TCU SCT040CB

TAF TAF LFBO
Valide du 16 à 18h jusqu'au 18 à 00h UTC


161700Z 1618/1724 27010KT 9999 SCT040
BECMG 1703/1705 VRB02KT
PROB30
TEMPO 1703/1707 BKN014
TEMPO 1712/1718 34008KT
ATIS : +33 5 62 74 66 36
Pas de NOTAMs connus pour ce terrain.
2 SIGMETs publiés pour la FIR Bordeaux (LFBB) :
 
Orages noyés dans la masse
LFBB SIGMET 17 VALID 161600/161800 LFPW
LFBB BORDEAUX FIR/UIR EMBD TS FCST WI N4645 E00230 - N4630 E00300 - N4515 E00245 - N4530 E00200 - N4645 E00230 TOP FL370 STNR NC=
Turbulence forte
LFBB SIGMET 16 VALID 161600/162000 LFPW
LFBB BORDEAUX FIR/UIR SEV TURB FCST WI N4315 E00245 - N4230 E00230 - N4300 E00215 - N4315 E00245 SFC/FL060 STNR NC=



MET'MAP, la Météo Aéronautique d'un coup d'oeil ! - Copyright ORBIFLY Décembre 2007 - Disclaimer

ORBIFLY MET'MAP TEAM :

Programmation & Développement : Alexandra Zaïnal
Conception & Développement : Baudouin d'Aumeries
Co-Programmation & Développement : Marc-Olivier Méhu
Soutien technique & logistique : Manuel Goepfert

Contact : metmap@orbifly.com




SOURCES & CREDITS :

   NOAA